WMT6PG LIRF-HESX
Flight info
| Callsign | WMT6PG |
|---|---|
| Flight time | 2h 39m |
| Altitude | 19000 |
| Route | PEPIX L50 UNIXO/N0440F350 DCT MALOG DCT RUTOM/N0441F370 DCT SALUN N705 MMA L613 KIVIL N710 TAKRI M720 FYM |
| Aircraft | A321/M-SDE1E2E3FGIJ1J4RWXY/LB1 |
Departure
| Time | 2026-05-07 16:22 |
|---|---|
| Airport | Rome–Fiumicino Leonardo da Vinci International Airport (LIRF) |
Arrival
| Time | 2026-05-07 19:01 |
|---|---|
| Airport | Sphinx International Airport (HESX) |
| Time | Latitude | Longitude | Altitude | Speed | Heading |
|---|---|---|---|---|---|
| 2026-05-07 16:04 | 41.79631 | 12.25777 | 15 ft | 0 kts | 116° |
| 2026-05-07 16:12 | 41.79634 | 12.25769 | 14 ft | 4 kts | 116° |
| 2026-05-07 16:12 | 41.79644 | 12.25741 | 14 ft | 2 kts | 116° |
| 2026-05-07 16:13 | 41.79648 | 12.25714 | 16 ft | 4 kts | 59° |
| 2026-05-07 16:13 | 41.79635 | 12.25695 | 18 ft | 1 kts | 26° |
| 2026-05-07 16:13 | 41.79649 | 12.25705 | 15 ft | 2 kts | 26° |
| 2026-05-07 16:13 | 41.79651 | 12.25706 | 15 ft | 0 kts | 26° |
| 2026-05-07 16:16 | 41.79671 | 12.25719 | 16 ft | 7 kts | 26° |
| 2026-05-07 16:16 | 41.79733 | 12.25759 | 14 ft | 12 kts | 26° |
| 2026-05-07 16:16 | 41.79811 | 12.25800 | 15 ft | 13 kts | 12° |
| 2026-05-07 16:16 | 41.79898 | 12.25838 | 15 ft | 14 kts | 26° |
| 2026-05-07 16:17 | 41.79987 | 12.25895 | 16 ft | 15 kts | 24° |
| 2026-05-07 16:17 | 41.80085 | 12.25952 | 15 ft | 16 kts | 25° |
| 2026-05-07 16:17 | 41.80188 | 12.26017 | 14 ft | 17 kts | 25° |
| 2026-05-07 16:17 | 41.80297 | 12.26085 | 14 ft | 18 kts | 25° |
| 2026-05-07 16:18 | 41.80410 | 12.26154 | 16 ft | 18 kts | 22° |
| 2026-05-07 16:18 | 41.80517 | 12.26218 | 18 ft | 17 kts | 52° |
| 2026-05-07 16:18 | 41.80566 | 12.26370 | 16 ft | 18 kts | 68° |
| 2026-05-07 16:18 | 41.80610 | 12.26537 | 17 ft | 19 kts | 70° |
| 2026-05-07 16:19 | 41.80660 | 12.26711 | 15 ft | 21 kts | 69° |
| 2026-05-07 16:19 | 41.80707 | 12.26887 | 14 ft | 16 kts | 69° |
| 2026-05-07 16:19 | 41.80757 | 12.27023 | 13 ft | 17 kts | 39° |
| 2026-05-07 16:19 | 41.80860 | 12.27016 | 13 ft | 8 kts | 339° |
| 2026-05-07 16:20 | 41.80875 | 12.27009 | 13 ft | 0 kts | 339° |
| 2026-05-07 16:20 | 41.80893 | 12.26999 | 13 ft | 5 kts | 339° |
| 2026-05-07 16:20 | 41.80941 | 12.26977 | 15 ft | 8 kts | 341° |
| 2026-05-07 16:21 | 41.80957 | 12.26927 | 13 ft | 0 kts | 249° |
| 2026-05-07 16:21 | 41.80942 | 12.26874 | 14 ft | 30 kts | 249° |
| 2026-05-07 16:21 | 41.80782 | 12.26286 | 19 ft | 101 kts | 250° |
| 2026-05-07 16:21 | 41.80467 | 12.25146 | 19 ft | 156 kts | 249° |
| 2026-05-07 16:22 | 41.80067 | 12.23709 | 470 ft | 165 kts | 252° |
| 2026-05-07 16:22 | 41.79671 | 12.22252 | 1127 ft | 167 kts | 251° |
| 2026-05-07 16:22 | 41.79314 | 12.20716 | 1543 ft | 182 kts | 264° |
| 2026-05-07 16:22 | 41.79261 | 12.18930 | 1850 ft | 199 kts | 269° |
| 2026-05-07 16:23 | 41.79217 | 12.17001 | 2289 ft | 217 kts | 268° |
| 2026-05-07 16:23 | 41.78835 | 12.14960 | 2558 ft | 238 kts | 238° |
| 2026-05-07 16:23 | 41.77715 | 12.13317 | 3227 ft | 241 kts | 222° |
| 2026-05-07 16:23 | 41.76491 | 12.11809 | 3959 ft | 243 kts | 222° |
| 2026-05-07 16:24 | 41.75245 | 12.10264 | 4754 ft | 244 kts | 222° |
| 2026-05-07 16:24 | 41.73993 | 12.08711 | 5500 ft | 247 kts | 222° |
| 2026-05-07 16:24 | 41.72728 | 12.07142 | 6241 ft | 249 kts | 222° |
| 2026-05-07 16:24 | 41.71437 | 12.05581 | 6963 ft | 251 kts | 216° |
| 2026-05-07 16:25 | 41.69884 | 12.04555 | 7664 ft | 252 kts | 194° |
| 2026-05-07 16:25 | 41.68075 | 12.04331 | 7990 ft | 272 kts | 180° |
| 2026-05-07 16:25 | 41.66150 | 12.04344 | 8561 ft | 280 kts | 180° |
| 2026-05-07 16:25 | 41.64198 | 12.04359 | 9324 ft | 281 kts | 181° |
| 2026-05-07 16:26 | 41.62258 | 12.04020 | 9994 ft | 284 kts | 200° |
| 2026-05-07 16:26 | 41.60412 | 12.02877 | 10257 ft | 304 kts | 205° |
| 2026-05-07 16:26 | 41.58327 | 12.01991 | 10406 ft | 326 kts | 191° |
| 2026-05-07 16:26 | 41.56022 | 12.01770 | 10862 ft | 337 kts | 180° |
| 2026-05-07 16:27 | 41.53662 | 12.01796 | 11495 ft | 341 kts | 181° |
| 2026-05-07 16:27 | 41.51279 | 12.01799 | 12168 ft | 344 kts | 181° |
| 2026-05-07 16:27 | 41.48880 | 12.01790 | 12843 ft | 346 kts | 182° |
| 2026-05-07 16:27 | 41.46460 | 12.01778 | 13508 ft | 349 kts | 182° |
| 2026-05-07 16:28 | 41.44017 | 12.01762 | 14116 ft | 353 kts | 182° |
| 2026-05-07 16:28 | 41.41554 | 12.01744 | 14719 ft | 355 kts | 182° |
| 2026-05-07 16:28 | 41.39074 | 12.01728 | 15328 ft | 358 kts | 183° |
| 2026-05-07 16:28 | 41.36577 | 12.01713 | 15952 ft | 360 kts | 183° |
| 2026-05-07 16:29 | 41.34067 | 12.01701 | 16581 ft | 362 kts | 182° |
| 2026-05-07 16:29 | 41.31546 | 12.02031 | 17196 ft | 368 kts | 171° |
| 2026-05-07 16:29 | 41.29089 | 12.03111 | 17788 ft | 377 kts | 159° |
| 2026-05-07 16:29 | 41.26829 | 12.04948 | 18329 ft | 387 kts | 146° |
| 2026-05-07 16:30 | 41.24839 | 12.07409 | 18790 ft | 394 kts | 140° |
| 2026-05-07 16:30 | 41.22875 | 12.09976 | 19239 ft | 398 kts | 140° |
| 2026-05-07 16:30 | 41.20882 | 12.12565 | 19685 ft | 403 kts | 140° |
| 2026-05-07 16:30 | 41.18861 | 12.15174 | 20132 ft | 407 kts | 140° |
| 2026-05-07 16:31 | 41.16817 | 12.17805 | 20580 ft | 412 kts | 140° |
| 2026-05-07 16:31 | 41.14749 | 12.20468 | 21022 ft | 417 kts | 140° |
| 2026-05-07 16:31 | 41.12657 | 12.23165 | 21467 ft | 421 kts | 140° |
| 2026-05-07 16:31 | 41.10549 | 12.25884 | 21926 ft | 425 kts | 140° |
| 2026-05-07 16:32 | 41.08452 | 12.28587 | 22375 ft | 428 kts | 140° |
| 2026-05-07 16:32 | 41.06304 | 12.31349 | 22795 ft | 432 kts | 140° |
| 2026-05-07 16:32 | 41.04136 | 12.34137 | 23201 ft | 436 kts | 140° |
| 2026-05-07 16:32 | 41.01949 | 12.36950 | 23594 ft | 441 kts | 140° |
| 2026-05-07 16:33 | 40.99742 | 12.39787 | 23951 ft | 443 kts | 140° |
| 2026-05-07 16:33 | 40.97523 | 12.42635 | 24318 ft | 446 kts | 140° |
| 2026-05-07 16:33 | 40.95291 | 12.45494 | 24704 ft | 447 kts | 140° |
| 2026-05-07 16:33 | 40.93052 | 12.48361 | 25098 ft | 449 kts | 140° |
| 2026-05-07 16:34 | 40.90803 | 12.51240 | 25481 ft | 450 kts | 141° |
| 2026-05-07 16:34 | 40.88547 | 12.54123 | 25870 ft | 452 kts | 141° |
| 2026-05-07 16:34 | 40.86283 | 12.57011 | 26232 ft | 454 kts | 141° |
| 2026-05-07 16:34 | 40.84004 | 12.59910 | 26593 ft | 456 kts | 141° |
| 2026-05-07 16:35 | 40.81717 | 12.62814 | 26948 ft | 457 kts | 141° |
| 2026-05-07 16:35 | 40.79499 | 12.65853 | 27297 ft | 464 kts | 134° |
| 2026-05-07 16:35 | 40.77632 | 12.69358 | 27641 ft | 471 kts | 124° |
| 2026-05-07 16:35 | 40.76190 | 12.73276 | 27974 ft | 479 kts | 114° |
| 2026-05-07 16:36 | 40.75082 | 12.77438 | 28272 ft | 482 kts | 112° |
| 2026-05-07 16:36 | 40.73981 | 12.81629 | 28578 ft | 485 kts | 112° |
| 2026-05-07 16:36 | 40.72868 | 12.85839 | 28888 ft | 487 kts | 113° |
| 2026-05-07 16:36 | 40.71744 | 12.90064 | 29189 ft | 490 kts | 113° |
| 2026-05-07 16:37 | 40.70614 | 12.94304 | 29485 ft | 492 kts | 113° |
| 2026-05-07 16:37 | 40.69477 | 12.98563 | 29784 ft | 494 kts | 113° |
| 2026-05-07 16:37 | 40.68333 | 13.02848 | 30074 ft | 496 kts | 113° |
| 2026-05-07 16:37 | 40.67184 | 13.07143 | 30294 ft | 500 kts | 114° |
| 2026-05-07 16:38 | 40.66023 | 13.11478 | 30486 ft | 503 kts | 114° |
| 2026-05-07 16:38 | 40.64853 | 13.15835 | 30651 ft | 507 kts | 114° |
| 2026-05-07 16:38 | 40.63669 | 13.20236 | 30812 ft | 512 kts | 114° |
| 2026-05-07 16:38 | 40.62474 | 13.24657 | 31077 ft | 513 kts | 114° |
| 2026-05-07 16:39 | 40.61275 | 13.29095 | 31321 ft | 516 kts | 115° |
| 2026-05-07 16:39 | 40.60074 | 13.33549 | 31560 ft | 518 kts | 115° |
| 2026-05-07 16:39 | 40.58865 | 13.38030 | 31792 ft | 521 kts | 115° |
| 2026-05-07 16:39 | 40.57650 | 13.42525 | 32034 ft | 523 kts | 115° |
| 2026-05-07 16:40 | 40.56429 | 13.47041 | 32276 ft | 525 kts | 116° |
| 2026-05-07 16:40 | 40.55199 | 13.51574 | 32467 ft | 528 kts | 116° |
| 2026-05-07 16:40 | 40.53957 | 13.56128 | 32640 ft | 530 kts | 116° |
| 2026-05-07 16:40 | 40.52661 | 13.60663 | 32885 ft | 530 kts | 119° |
| 2026-05-07 16:41 | 40.51257 | 13.65142 | 33126 ft | 530 kts | 121° |
| 2026-05-07 16:41 | 40.49756 | 13.69569 | 33383 ft | 530 kts | 123° |
| 2026-05-07 16:41 | 40.48201 | 13.73956 | 33604 ft | 531 kts | 124° |
| 2026-05-07 16:41 | 40.46622 | 13.78348 | 33860 ft | 532 kts | 124° |
| 2026-05-07 16:42 | 40.45048 | 13.82755 | 34096 ft | 534 kts | 124° |
| 2026-05-07 16:42 | 40.43491 | 13.87192 | 34320 ft | 536 kts | 123° |
| 2026-05-07 16:42 | 40.41952 | 13.91657 | 34519 ft | 538 kts | 123° |
| 2026-05-07 16:42 | 40.40429 | 13.96140 | 34764 ft | 538 kts | 122° |
| 2026-05-07 16:43 | 40.38908 | 14.00632 | 34885 ft | 539 kts | 122° |
| 2026-05-07 16:43 | 40.35883 | 14.09550 | 34917 ft | 533 kts | 123° |
| 2026-05-07 16:44 | 40.32835 | 14.18396 | 34915 ft | 532 kts | 123° |
| 2026-05-07 16:44 | 40.29762 | 14.27218 | 34917 ft | 533 kts | 123° |
| 2026-05-07 16:45 | 40.26678 | 14.36058 | 34907 ft | 534 kts | 123° |
| 2026-05-07 16:45 | 40.23598 | 14.44900 | 34911 ft | 534 kts | 123° |
| 2026-05-07 16:46 | 40.20515 | 14.53743 | 34897 ft | 534 kts | 123° |
| 2026-05-07 16:46 | 40.17427 | 14.62562 | 34928 ft | 532 kts | 123° |
| 2026-05-07 16:47 | 40.14358 | 14.71284 | 34927 ft | 531 kts | 123° |
| 2026-05-07 16:47 | 40.11267 | 14.80048 | 34928 ft | 531 kts | 123° |
| 2026-05-07 16:48 | 40.08179 | 14.88791 | 34929 ft | 530 kts | 123° |
| 2026-05-07 16:48 | 40.05083 | 14.97508 | 34913 ft | 529 kts | 123° |
| 2026-05-07 16:49 | 40.01992 | 15.06201 | 34930 ft | 527 kts | 123° |
| 2026-05-07 16:49 | 39.98897 | 15.14867 | 34934 ft | 526 kts | 123° |
| 2026-05-07 16:50 | 39.95802 | 15.23503 | 34948 ft | 525 kts | 123° |
| 2026-05-07 16:50 | 39.92697 | 15.32114 | 34922 ft | 525 kts | 123° |
| 2026-05-07 16:51 | 39.90115 | 15.39267 | 34938 ft | 525 kts | 123° |
| 2026-05-07 16:51 | 39.87015 | 15.47870 | 34944 ft | 525 kts | 123° |
| 2026-05-07 16:52 | 39.83905 | 15.56453 | 34964 ft | 524 kts | 123° |
| 2026-05-07 16:52 | 39.80795 | 15.65017 | 34971 ft | 523 kts | 122° |
| 2026-05-07 16:53 | 39.77686 | 15.73555 | 34980 ft | 522 kts | 122° |
| 2026-05-07 16:53 | 39.74568 | 15.82077 | 35002 ft | 521 kts | 122° |
| 2026-05-07 16:54 | 39.71457 | 15.90584 | 35003 ft | 521 kts | 122° |
| 2026-05-07 16:54 | 39.68342 | 15.99074 | 35010 ft | 520 kts | 122° |
| 2026-05-07 16:55 | 39.65216 | 16.07539 | 35033 ft | 519 kts | 122° |
| 2026-05-07 16:55 | 39.62093 | 16.15981 | 35039 ft | 519 kts | 121° |
| 2026-05-07 16:56 | 39.58970 | 16.24415 | 35051 ft | 519 kts | 122° |
| 2026-05-07 16:56 | 39.54271 | 16.37045 | 35074 ft | 518 kts | 121° |
| 2026-05-07 16:57 | 39.51135 | 16.45446 | 35074 ft | 518 kts | 121° |
| 2026-05-07 16:57 | 39.47998 | 16.53838 | 35088 ft | 518 kts | 122° |
| 2026-05-07 16:58 | 39.44847 | 16.62210 | 35082 ft | 517 kts | 122° |
| 2026-05-07 16:58 | 39.41694 | 16.70571 | 35075 ft | 518 kts | 121° |
| 2026-05-07 16:59 | 39.38533 | 16.78932 | 35088 ft | 518 kts | 121° |
| 2026-05-07 16:59 | 39.35372 | 16.87288 | 35095 ft | 517 kts | 121° |
| 2026-05-07 17:00 | 39.32210 | 16.95642 | 35084 ft | 517 kts | 121° |
| 2026-05-07 17:00 | 39.29040 | 17.03976 | 35089 ft | 517 kts | 122° |
| 2026-05-07 17:01 | 39.25853 | 17.12306 | 35062 ft | 518 kts | 121° |
| 2026-05-07 17:01 | 39.22659 | 17.20653 | 35048 ft | 519 kts | 121° |
| 2026-05-07 17:02 | 39.19471 | 17.28944 | 35051 ft | 520 kts | 122° |
| 2026-05-07 17:02 | 39.16255 | 17.37296 | 35050 ft | 520 kts | 122° |
| 2026-05-07 17:03 | 39.13042 | 17.45654 | 35034 ft | 521 kts | 121° |
| 2026-05-07 17:03 | 39.09810 | 17.54012 | 35028 ft | 522 kts | 121° |
| 2026-05-07 17:04 | 39.06564 | 17.62367 | 35026 ft | 522 kts | 121° |
| 2026-05-07 17:04 | 39.03308 | 17.70722 | 35033 ft | 522 kts | 121° |
| 2026-05-07 17:05 | 39.00044 | 17.79072 | 35026 ft | 523 kts | 121° |
| 2026-05-07 17:05 | 38.96779 | 17.87425 | 35025 ft | 523 kts | 121° |
| 2026-05-07 17:06 | 38.93500 | 17.95777 | 35025 ft | 523 kts | 121° |
| 2026-05-07 17:06 | 38.90211 | 18.04114 | 35031 ft | 524 kts | 121° |
| 2026-05-07 17:07 | 38.86918 | 18.12451 | 35031 ft | 524 kts | 121° |
| 2026-05-07 17:07 | 38.83623 | 18.20785 | 35033 ft | 524 kts | 121° |
| 2026-05-07 17:08 | 38.80351 | 18.29058 | 35031 ft | 524 kts | 121° |
| 2026-05-07 17:08 | 38.77045 | 18.37373 | 35021 ft | 523 kts | 121° |
| 2026-05-07 17:09 | 38.73734 | 18.45669 | 35036 ft | 523 kts | 121° |
| 2026-05-07 17:09 | 38.70412 | 18.53960 | 35159 ft | 525 kts | 121° |
| 2026-05-07 17:10 | 38.68741 | 18.58113 | 35422 ft | 525 kts | 121° |
| 2026-05-07 17:10 | 38.67070 | 18.62277 | 35696 ft | 526 kts | 121° |
| 2026-05-07 17:10 | 38.65402 | 18.66437 | 35976 ft | 526 kts | 121° |
| 2026-05-07 17:10 | 38.63730 | 18.70599 | 36239 ft | 526 kts | 121° |
| 2026-05-07 17:11 | 38.62056 | 18.74751 | 36501 ft | 526 kts | 121° |
| 2026-05-07 17:11 | 38.60379 | 18.78903 | 36762 ft | 526 kts | 120° |
| 2026-05-07 17:11 | 38.58698 | 18.83059 | 36936 ft | 527 kts | 120° |
| 2026-05-07 17:11 | 38.57013 | 18.87230 | 37041 ft | 528 kts | 120° |
| 2026-05-07 17:12 | 38.53637 | 18.95567 | 37018 ft | 528 kts | 121° |
| 2026-05-07 17:12 | 38.49453 | 19.03130 | 37030 ft | 517 kts | 139° |
| 2026-05-07 17:13 | 38.44443 | 19.09686 | 37038 ft | 516 kts | 140° |
| 2026-05-07 17:13 | 38.39448 | 19.16244 | 37039 ft | 516 kts | 139° |
| 2026-05-07 17:14 | 38.34442 | 19.22803 | 37047 ft | 516 kts | 139° |
| 2026-05-07 17:14 | 38.29429 | 19.29350 | 37055 ft | 517 kts | 139° |
| 2026-05-07 17:15 | 38.24438 | 19.35850 | 37059 ft | 517 kts | 139° |
| 2026-05-07 17:15 | 38.19412 | 19.42388 | 37065 ft | 517 kts | 139° |
| 2026-05-07 17:16 | 38.14382 | 19.48916 | 37035 ft | 517 kts | 139° |
| 2026-05-07 17:16 | 38.09344 | 19.55427 | 37058 ft | 517 kts | 139° |
| 2026-05-07 17:17 | 38.04307 | 19.61935 | 37068 ft | 517 kts | 139° |
| 2026-05-07 17:17 | 37.99269 | 19.68437 | 37070 ft | 517 kts | 139° |
| 2026-05-07 17:18 | 37.94231 | 19.74924 | 37074 ft | 516 kts | 139° |
| 2026-05-07 17:18 | 37.89183 | 19.81398 | 37078 ft | 516 kts | 139° |
| 2026-05-07 17:19 | 37.84130 | 19.87864 | 37061 ft | 516 kts | 139° |
| 2026-05-07 17:19 | 37.79080 | 19.94329 | 37083 ft | 516 kts | 139° |
| 2026-05-07 17:20 | 37.74028 | 20.00776 | 37078 ft | 516 kts | 139° |
| 2026-05-07 17:20 | 37.68967 | 20.07216 | 37087 ft | 516 kts | 139° |
| 2026-05-07 17:21 | 37.63908 | 20.13640 | 37086 ft | 516 kts | 139° |
| 2026-05-07 17:21 | 37.58846 | 20.20065 | 37089 ft | 516 kts | 139° |
| 2026-05-07 17:22 | 37.53778 | 20.26477 | 37068 ft | 516 kts | 139° |
| 2026-05-07 17:22 | 37.48741 | 20.32845 | 37078 ft | 517 kts | 139° |
| 2026-05-07 17:23 | 37.43661 | 20.39243 | 37090 ft | 517 kts | 139° |
| 2026-05-07 17:23 | 37.38579 | 20.45634 | 37090 ft | 517 kts | 139° |
| 2026-05-07 17:24 | 37.33492 | 20.52018 | 37093 ft | 517 kts | 139° |
| 2026-05-07 17:24 | 37.28398 | 20.58395 | 37062 ft | 517 kts | 139° |
| 2026-05-07 17:25 | 37.23298 | 20.64769 | 37084 ft | 517 kts | 139° |
| 2026-05-07 17:25 | 37.18197 | 20.71140 | 37093 ft | 517 kts | 139° |
| 2026-05-07 17:26 | 37.13089 | 20.77493 | 37097 ft | 517 kts | 139° |
| 2026-05-07 17:26 | 37.07982 | 20.83841 | 37101 ft | 517 kts | 139° |
| 2026-05-07 17:27 | 37.02873 | 20.90187 | 37104 ft | 518 kts | 139° |
| 2026-05-07 17:27 | 36.97756 | 20.96534 | 37084 ft | 518 kts | 139° |
| 2026-05-07 17:28 | 36.92670 | 21.02810 | 37107 ft | 517 kts | 139° |
| 2026-05-07 17:28 | 36.87544 | 21.09107 | 37111 ft | 517 kts | 139° |
| 2026-05-07 17:29 | 36.82421 | 21.15398 | 37116 ft | 516 kts | 139° |
| 2026-05-07 17:29 | 36.77300 | 21.21696 | 37109 ft | 517 kts | 139° |
| 2026-05-07 17:30 | 36.72173 | 21.27992 | 37112 ft | 518 kts | 139° |
| 2026-05-07 17:30 | 36.67033 | 21.34280 | 37095 ft | 518 kts | 139° |
| 2026-05-07 17:31 | 36.61882 | 21.40557 | 37107 ft | 518 kts | 139° |
| 2026-05-07 17:31 | 36.56726 | 21.46825 | 37113 ft | 518 kts | 139° |
| 2026-05-07 17:32 | 36.51569 | 21.53096 | 37117 ft | 518 kts | 139° |
| 2026-05-07 17:32 | 36.47288 | 21.58306 | 37122 ft | 518 kts | 139° |
| 2026-05-07 17:33 | 36.41251 | 21.65615 | 37120 ft | 518 kts | 139° |
| 2026-05-07 17:33 | 36.36083 | 21.71852 | 37118 ft | 518 kts | 139° |
| 2026-05-07 17:34 | 36.30917 | 21.78086 | 37115 ft | 518 kts | 139° |
| 2026-05-07 17:34 | 36.25748 | 21.84312 | 37119 ft | 518 kts | 139° |
| 2026-05-07 17:35 | 36.20569 | 21.90537 | 37113 ft | 519 kts | 139° |
| 2026-05-07 17:35 | 36.15383 | 21.96751 | 37115 ft | 519 kts | 139° |
| 2026-05-07 17:36 | 36.10192 | 22.02962 | 37114 ft | 519 kts | 139° |
| 2026-05-07 17:36 | 36.05000 | 22.09159 | 37111 ft | 519 kts | 139° |
| 2026-05-07 17:37 | 35.99805 | 22.15353 | 37128 ft | 519 kts | 138° |
| 2026-05-07 17:37 | 35.94610 | 22.21538 | 37126 ft | 519 kts | 138° |
| 2026-05-07 17:38 | 35.89415 | 22.27708 | 37126 ft | 518 kts | 138° |
| 2026-05-07 17:38 | 35.84215 | 22.33867 | 37127 ft | 518 kts | 139° |
| 2026-05-07 17:39 | 35.79894 | 22.38980 | 37106 ft | 518 kts | 138° |
| 2026-05-07 17:39 | 35.73852 | 22.46122 | 37129 ft | 518 kts | 138° |
| 2026-05-07 17:40 | 35.69490 | 22.51260 | 37131 ft | 518 kts | 138° |
| 2026-05-07 17:40 | 35.64282 | 22.57390 | 37132 ft | 518 kts | 138° |
| 2026-05-07 17:41 | 35.59111 | 22.63467 | 37137 ft | 518 kts | 138° |
| 2026-05-07 17:41 | 35.53899 | 22.69571 | 37137 ft | 518 kts | 138° |
| 2026-05-07 17:42 | 35.48684 | 22.75669 | 37127 ft | 518 kts | 138° |
| 2026-05-07 17:42 | 35.43466 | 22.81759 | 37146 ft | 518 kts | 138° |
| 2026-05-07 17:43 | 35.38246 | 22.87850 | 37156 ft | 518 kts | 138° |
| 2026-05-07 17:43 | 35.33022 | 22.93934 | 37151 ft | 518 kts | 138° |
| 2026-05-07 17:44 | 35.27790 | 23.00008 | 37163 ft | 518 kts | 138° |
| 2026-05-07 17:44 | 35.22557 | 23.06067 | 37159 ft | 518 kts | 138° |
| 2026-05-07 17:45 | 35.17324 | 23.12122 | 37148 ft | 517 kts | 137° |
| 2026-05-07 17:45 | 35.12096 | 23.18157 | 37163 ft | 516 kts | 137° |
| 2026-05-07 17:46 | 35.06880 | 23.24174 | 37170 ft | 516 kts | 137° |
| 2026-05-07 17:46 | 35.01667 | 23.30183 | 37165 ft | 515 kts | 137° |
| 2026-05-07 17:47 | 34.96450 | 23.36172 | 37159 ft | 515 kts | 137° |
| 2026-05-07 17:47 | 34.91234 | 23.42143 | 37176 ft | 514 kts | 137° |
| 2026-05-07 17:48 | 34.86020 | 23.48109 | 37154 ft | 514 kts | 137° |
| 2026-05-07 17:48 | 34.80801 | 23.54065 | 37171 ft | 514 kts | 137° |
| 2026-05-07 17:49 | 34.75588 | 23.60013 | 37165 ft | 514 kts | 137° |
| 2026-05-07 17:49 | 34.70379 | 23.65952 | 37169 ft | 513 kts | 137° |
| 2026-05-07 17:50 | 34.65195 | 23.71835 | 37158 ft | 513 kts | 137° |
| 2026-05-07 17:50 | 34.59979 | 23.77750 | 37163 ft | 513 kts | 138° |
| 2026-05-07 17:51 | 34.54750 | 23.83668 | 37148 ft | 514 kts | 137° |
| 2026-05-07 17:51 | 34.49517 | 23.89570 | 37163 ft | 514 kts | 137° |
| 2026-05-07 17:52 | 34.44286 | 23.95470 | 37158 ft | 514 kts | 137° |
| 2026-05-07 17:52 | 34.39057 | 24.01362 | 37158 ft | 513 kts | 137° |
| 2026-05-07 17:53 | 34.33830 | 24.07247 | 37164 ft | 513 kts | 138° |
| 2026-05-07 17:53 | 34.28589 | 24.13122 | 37147 ft | 514 kts | 138° |
| 2026-05-07 17:54 | 34.23332 | 24.18999 | 37147 ft | 514 kts | 138° |
| 2026-05-07 17:54 | 34.18081 | 24.24865 | 37165 ft | 514 kts | 138° |
| 2026-05-07 17:55 | 34.12832 | 24.30718 | 37170 ft | 513 kts | 138° |
| 2026-05-07 17:55 | 34.07590 | 24.36559 | 37169 ft | 513 kts | 138° |
| 2026-05-07 17:56 | 34.02345 | 24.42397 | 37149 ft | 514 kts | 138° |
| 2026-05-07 17:56 | 33.97065 | 24.48225 | 37135 ft | 516 kts | 139° |
| 2026-05-07 17:57 | 33.92616 | 24.53021 | 37130 ft | 517 kts | 139° |
| 2026-05-07 17:57 | 33.86321 | 24.59724 | 37147 ft | 517 kts | 139° |
| 2026-05-07 17:58 | 33.80938 | 24.65471 | 37164 ft | 517 kts | 139° |
| 2026-05-07 17:58 | 33.75570 | 24.71234 | 37168 ft | 517 kts | 139° |
| 2026-05-07 17:59 | 33.70199 | 24.76992 | 37174 ft | 517 kts | 139° |
| 2026-05-07 17:59 | 33.64815 | 24.82729 | 37176 ft | 517 kts | 139° |
| 2026-05-07 18:00 | 33.59438 | 24.88465 | 37170 ft | 517 kts | 139° |
| 2026-05-07 18:00 | 33.54061 | 24.94190 | 37175 ft | 517 kts | 139° |
| 2026-05-07 18:01 | 33.48679 | 24.99893 | 37177 ft | 517 kts | 139° |
| 2026-05-07 18:01 | 33.43287 | 25.05602 | 37147 ft | 518 kts | 138° |
| 2026-05-07 18:02 | 33.35168 | 25.14194 | 37140 ft | 521 kts | 139° |
| 2026-05-07 18:03 | 33.29730 | 25.19936 | 37151 ft | 522 kts | 139° |
| 2026-05-07 18:03 | 33.24284 | 25.25674 | 37165 ft | 522 kts | 139° |
| 2026-05-07 18:04 | 33.18831 | 25.31418 | 37170 ft | 523 kts | 139° |
| 2026-05-07 18:04 | 33.13366 | 25.37153 | 37164 ft | 524 kts | 138° |
| 2026-05-07 18:05 | 33.07878 | 25.42889 | 37157 ft | 525 kts | 138° |
| 2026-05-07 18:05 | 33.02384 | 25.48641 | 37162 ft | 526 kts | 138° |
| 2026-05-07 18:06 | 32.96923 | 25.54354 | 37173 ft | 526 kts | 138° |
| 2026-05-07 18:06 | 32.91420 | 25.60085 | 37184 ft | 526 kts | 138° |
| 2026-05-07 18:07 | 32.85918 | 25.65809 | 37189 ft | 525 kts | 138° |
| 2026-05-07 18:07 | 32.80414 | 25.71535 | 37183 ft | 526 kts | 138° |
| 2026-05-07 18:08 | 32.74907 | 25.77256 | 37181 ft | 526 kts | 138° |
| 2026-05-07 18:08 | 32.69395 | 25.82965 | 37174 ft | 526 kts | 138° |
| 2026-05-07 18:09 | 32.63877 | 25.88664 | 37186 ft | 526 kts | 138° |
| 2026-05-07 18:09 | 32.58364 | 25.94347 | 37188 ft | 525 kts | 138° |
| 2026-05-07 18:10 | 32.52856 | 26.00034 | 37188 ft | 525 kts | 137° |
| 2026-05-07 18:10 | 32.47333 | 26.05714 | 37182 ft | 526 kts | 138° |
| 2026-05-07 18:11 | 32.41803 | 26.11381 | 37180 ft | 526 kts | 138° |
| 2026-05-07 18:11 | 32.36278 | 26.17051 | 37174 ft | 525 kts | 138° |
| 2026-05-07 18:12 | 32.30756 | 26.22709 | 37183 ft | 525 kts | 138° |
| 2026-05-07 18:12 | 32.25228 | 26.28355 | 37191 ft | 525 kts | 137° |
| 2026-05-07 18:13 | 32.19683 | 26.33992 | 37184 ft | 526 kts | 137° |
| 2026-05-07 18:13 | 32.14137 | 26.39636 | 37182 ft | 527 kts | 137° |
| 2026-05-07 18:14 | 32.08589 | 26.45286 | 37181 ft | 527 kts | 137° |
| 2026-05-07 18:14 | 32.03043 | 26.50916 | 37175 ft | 526 kts | 138° |
| 2026-05-07 18:15 | 31.97496 | 26.56535 | 37195 ft | 526 kts | 138° |
| 2026-05-07 18:15 | 31.91941 | 26.62146 | 37182 ft | 526 kts | 137° |
| 2026-05-07 18:16 | 31.86383 | 26.67766 | 37178 ft | 527 kts | 137° |
| 2026-05-07 18:16 | 31.80817 | 26.73389 | 37180 ft | 528 kts | 137° |
| 2026-05-07 18:17 | 31.75275 | 26.78960 | 37164 ft | 528 kts | 138° |
| 2026-05-07 18:17 | 31.69695 | 26.84552 | 37179 ft | 527 kts | 138° |
| 2026-05-07 18:18 | 31.64128 | 26.90145 | 37195 ft | 527 kts | 137° |
| 2026-05-07 18:18 | 31.58558 | 26.95739 | 37185 ft | 527 kts | 137° |
| 2026-05-07 18:19 | 31.52973 | 27.01323 | 37181 ft | 528 kts | 138° |
| 2026-05-07 18:19 | 31.47379 | 27.06902 | 37181 ft | 528 kts | 138° |
| 2026-05-07 18:20 | 31.41779 | 27.12475 | 37165 ft | 528 kts | 138° |
| 2026-05-07 18:20 | 31.36175 | 27.18045 | 37207 ft | 528 kts | 138° |
| 2026-05-07 18:21 | 31.30562 | 27.23608 | 37192 ft | 529 kts | 139° |
| 2026-05-07 18:21 | 31.24820 | 27.28994 | 37186 ft | 530 kts | 141° |
| 2026-05-07 18:22 | 31.18987 | 27.34265 | 37185 ft | 530 kts | 141° |
| 2026-05-07 18:22 | 31.13172 | 27.39561 | 37185 ft | 530 kts | 140° |
| 2026-05-07 18:23 | 31.07389 | 27.44891 | 37175 ft | 529 kts | 140° |
| 2026-05-07 18:23 | 31.01612 | 27.50218 | 37185 ft | 529 kts | 140° |
| 2026-05-07 18:24 | 30.95830 | 27.55537 | 37182 ft | 530 kts | 140° |
| 2026-05-07 18:24 | 30.90034 | 27.60849 | 37179 ft | 530 kts | 140° |
| 2026-05-07 18:25 | 30.84233 | 27.66148 | 37180 ft | 530 kts | 140° |
| 2026-05-07 18:25 | 30.78472 | 27.71410 | 37159 ft | 530 kts | 140° |
| 2026-05-07 18:26 | 30.72675 | 27.76689 | 37165 ft | 529 kts | 140° |
| 2026-05-07 18:26 | 30.67818 | 27.81106 | 37168 ft | 529 kts | 140° |
| 2026-05-07 18:27 | 30.62027 | 27.86372 | 37169 ft | 529 kts | 140° |
| 2026-05-07 18:27 | 30.56228 | 27.91631 | 37164 ft | 529 kts | 140° |
| 2026-05-07 18:28 | 30.50429 | 27.96882 | 37160 ft | 529 kts | 140° |
| 2026-05-07 18:28 | 30.44630 | 28.02127 | 37148 ft | 529 kts | 140° |
| 2026-05-07 18:29 | 30.38835 | 28.07372 | 37175 ft | 528 kts | 140° |
| 2026-05-07 18:29 | 30.33045 | 28.12604 | 37165 ft | 528 kts | 140° |
| 2026-05-07 18:30 | 30.27245 | 28.17823 | 37157 ft | 528 kts | 140° |
| 2026-05-07 18:30 | 30.21491 | 28.22997 | 37154 ft | 528 kts | 140° |
| 2026-05-07 18:31 | 30.15688 | 28.28194 | 37151 ft | 528 kts | 140° |
| 2026-05-07 18:31 | 30.09887 | 28.33397 | 37149 ft | 528 kts | 140° |
| 2026-05-07 18:32 | 30.04088 | 28.38598 | 37169 ft | 528 kts | 140° |
| 2026-05-07 18:32 | 29.98276 | 28.43786 | 37159 ft | 528 kts | 140° |
| 2026-05-07 18:33 | 29.92465 | 28.48971 | 37152 ft | 528 kts | 140° |
| 2026-05-07 18:33 | 29.86655 | 28.54153 | 37149 ft | 528 kts | 140° |
| 2026-05-07 18:34 | 29.80846 | 28.59328 | 37129 ft | 528 kts | 140° |
| 2026-05-07 18:34 | 29.75026 | 28.64492 | 37138 ft | 528 kts | 140° |
| 2026-05-07 18:35 | 29.69209 | 28.69646 | 37139 ft | 528 kts | 140° |
| 2026-05-07 18:35 | 29.63709 | 28.75177 | 37133 ft | 522 kts | 127° |
| 2026-05-07 18:36 | 29.59230 | 28.81695 | 37126 ft | 519 kts | 123° |
| 2026-05-07 18:36 | 29.54812 | 28.88264 | 37124 ft | 520 kts | 123° |
| 2026-05-07 18:37 | 29.50383 | 28.94817 | 37111 ft | 520 kts | 123° |
| 2026-05-07 18:37 | 29.48159 | 28.98094 | 36926 ft | 521 kts | 123° |
| 2026-05-07 18:37 | 29.45970 | 29.01433 | 36050 ft | 524 kts | 118° |
| 2026-05-07 18:37 | 29.44151 | 29.05042 | 35237 ft | 521 kts | 109° |
| 2026-05-07 18:38 | 29.42837 | 29.08871 | 34736 ft | 510 kts | 99° |
| 2026-05-07 18:38 | 29.42011 | 29.12772 | 34256 ft | 498 kts | 90° |
| 2026-05-07 18:38 | 29.41660 | 29.16617 | 33755 ft | 485 kts | 82° |
| 2026-05-07 18:38 | 29.41612 | 29.20446 | 33304 ft | 478 kts | 81° |
| 2026-05-07 18:39 | 29.41568 | 29.24240 | 32834 ft | 474 kts | 81° |
| 2026-05-07 18:39 | 29.41520 | 29.28055 | 32368 ft | 470 kts | 81° |
| 2026-05-07 18:39 | 29.41470 | 29.31734 | 31916 ft | 466 kts | 81° |
| 2026-05-07 18:39 | 29.41422 | 29.35432 | 31452 ft | 462 kts | 81° |
| 2026-05-07 18:40 | 29.41373 | 29.39152 | 31002 ft | 458 kts | 81° |
| 2026-05-07 18:40 | 29.41327 | 29.42736 | 30552 ft | 454 kts | 82° |
| 2026-05-07 18:40 | 29.41282 | 29.46341 | 30096 ft | 450 kts | 82° |
| 2026-05-07 18:40 | 29.41236 | 29.49909 | 29618 ft | 445 kts | 82° |
| 2026-05-07 18:41 | 29.41189 | 29.53437 | 29184 ft | 440 kts | 82° |
| 2026-05-07 18:41 | 29.41140 | 29.56919 | 28769 ft | 434 kts | 83° |
| 2026-05-07 18:41 | 29.41089 | 29.60365 | 28347 ft | 429 kts | 83° |
| 2026-05-07 18:41 | 29.41041 | 29.63769 | 27941 ft | 425 kts | 83° |
| 2026-05-07 18:42 | 29.40995 | 29.67138 | 27543 ft | 421 kts | 83° |
| 2026-05-07 18:42 | 29.40948 | 29.70475 | 27146 ft | 417 kts | 83° |
| 2026-05-07 18:42 | 29.40898 | 29.73789 | 26764 ft | 414 kts | 84° |
| 2026-05-07 18:42 | 29.40846 | 29.77078 | 26382 ft | 411 kts | 84° |
| 2026-05-07 18:43 | 29.40795 | 29.80341 | 25996 ft | 408 kts | 84° |
| 2026-05-07 18:43 | 29.40744 | 29.83580 | 25627 ft | 405 kts | 85° |
| 2026-05-07 18:43 | 29.40694 | 29.86798 | 25234 ft | 402 kts | 85° |
| 2026-05-07 18:43 | 29.40644 | 29.89992 | 24846 ft | 399 kts | 85° |
| 2026-05-07 18:44 | 29.40592 | 29.93166 | 24459 ft | 397 kts | 86° |
| 2026-05-07 18:44 | 29.40540 | 29.96318 | 24069 ft | 394 kts | 86° |
| 2026-05-07 18:44 | 29.40489 | 29.99452 | 23668 ft | 392 kts | 86° |
| 2026-05-07 18:44 | 29.40437 | 30.02566 | 23224 ft | 389 kts | 87° |
| 2026-05-07 18:45 | 29.40383 | 30.05647 | 22821 ft | 384 kts | 87° |
| 2026-05-07 18:45 | 29.40328 | 30.08696 | 22406 ft | 380 kts | 87° |
| 2026-05-07 18:45 | 29.40273 | 30.11712 | 22007 ft | 377 kts | 88° |
| 2026-05-07 18:45 | 29.40220 | 30.14700 | 21592 ft | 373 kts | 88° |
| 2026-05-07 18:46 | 29.40165 | 30.17662 | 21188 ft | 370 kts | 88° |
| 2026-05-07 18:46 | 29.40111 | 30.20596 | 20778 ft | 367 kts | 88° |
| 2026-05-07 18:46 | 29.40057 | 30.23505 | 20371 ft | 363 kts | 88° |
| 2026-05-07 18:46 | 29.40002 | 30.26390 | 19961 ft | 361 kts | 88° |
| 2026-05-07 18:47 | 29.39945 | 30.29254 | 19549 ft | 358 kts | 88° |
| 2026-05-07 18:47 | 29.39887 | 30.32094 | 19144 ft | 355 kts | 89° |
| 2026-05-07 18:47 | 29.39837 | 30.34916 | 18735 ft | 352 kts | 86° |
| 2026-05-07 18:47 | 29.40119 | 30.37673 | 18332 ft | 346 kts | 73° |
| 2026-05-07 18:48 | 29.40903 | 30.40249 | 17883 ft | 340 kts | 61° |
| 2026-05-07 18:48 | 29.42097 | 30.42508 | 17480 ft | 333 kts | 49° |
| 2026-05-07 18:48 | 29.43556 | 30.44538 | 17074 ft | 328 kts | 47° |
| 2026-05-07 18:48 | 29.45009 | 30.46546 | 16675 ft | 326 kts | 47° |
| 2026-05-07 18:49 | 29.46442 | 30.48538 | 16277 ft | 323 kts | 47° |
| 2026-05-07 18:49 | 29.47864 | 30.50519 | 15884 ft | 320 kts | 47° |
| 2026-05-07 18:49 | 29.49277 | 30.52484 | 15486 ft | 318 kts | 47° |
| 2026-05-07 18:49 | 29.50682 | 30.54437 | 15100 ft | 316 kts | 47° |
| 2026-05-07 18:50 | 29.52078 | 30.56378 | 14711 ft | 314 kts | 48° |
| 2026-05-07 18:50 | 29.53468 | 30.58310 | 14325 ft | 313 kts | 47° |
| 2026-05-07 18:50 | 29.54852 | 30.60232 | 13937 ft | 311 kts | 47° |
| 2026-05-07 18:50 | 29.56230 | 30.62144 | 13521 ft | 310 kts | 47° |
| 2026-05-07 18:51 | 29.57597 | 30.64044 | 13141 ft | 307 kts | 47° |
| 2026-05-07 18:51 | 29.58949 | 30.65931 | 12764 ft | 304 kts | 47° |
| 2026-05-07 18:51 | 29.60289 | 30.67802 | 12382 ft | 302 kts | 47° |
| 2026-05-07 18:51 | 29.61618 | 30.69652 | 12019 ft | 299 kts | 48° |
| 2026-05-07 18:52 | 29.62935 | 30.71486 | 11653 ft | 297 kts | 46° |
| 2026-05-07 18:52 | 29.64290 | 30.73271 | 11120 ft | 298 kts | 39° |
| 2026-05-07 18:52 | 29.65979 | 30.74645 | 10711 ft | 295 kts | 31° |
| 2026-05-07 18:52 | 29.67668 | 30.75935 | 10441 ft | 290 kts | 31° |
| 2026-05-07 18:53 | 29.69334 | 30.77223 | 10073 ft | 288 kts | 32° |
| 2026-05-07 18:53 | 29.70990 | 30.78507 | 9692 ft | 286 kts | 32° |
| 2026-05-07 18:53 | 29.72631 | 30.79779 | 9329 ft | 283 kts | 31° |
| 2026-05-07 18:53 | 29.74264 | 30.81039 | 8900 ft | 283 kts | 31° |
| 2026-05-07 18:54 | 29.75892 | 30.82294 | 8521 ft | 281 kts | 31° |
| 2026-05-07 18:54 | 29.77508 | 30.83539 | 8180 ft | 278 kts | 32° |
| 2026-05-07 18:54 | 29.79112 | 30.84774 | 7787 ft | 277 kts | 31° |
| 2026-05-07 18:54 | 29.80712 | 30.86007 | 7349 ft | 274 kts | 32° |
| 2026-05-07 18:55 | 29.82289 | 30.87224 | 6846 ft | 272 kts | 31° |
| 2026-05-07 18:55 | 29.83857 | 30.88432 | 6306 ft | 270 kts | 31° |
| 2026-05-07 18:55 | 29.85429 | 30.89644 | 5597 ft | 274 kts | 31° |
| 2026-05-07 18:55 | 29.87023 | 30.90874 | 4896 ft | 277 kts | 31° |
| 2026-05-07 18:56 | 29.88621 | 30.92108 | 4376 ft | 272 kts | 32° |
| 2026-05-07 18:56 | 29.90147 | 30.93289 | 4159 ft | 256 kts | 33° |
| 2026-05-07 18:56 | 29.91662 | 30.94217 | 3918 ft | 240 kts | 17° |
| 2026-05-07 18:56 | 29.93263 | 30.94518 | 3667 ft | 229 kts | 0° |
| 2026-05-07 18:57 | 29.94786 | 30.94251 | 3420 ft | 214 kts | 348° |
| 2026-05-07 18:57 | 29.96144 | 30.93852 | 3150 ft | 192 kts | 349° |
| 2026-05-07 18:57 | 29.97358 | 30.93496 | 2929 ft | 168 kts | 350° |
| 2026-05-07 18:57 | 29.98430 | 30.93183 | 2712 ft | 151 kts | 351° |
| 2026-05-07 18:58 | 29.99420 | 30.92896 | 2501 ft | 144 kts | 352° |
| 2026-05-07 18:58 | 30.00377 | 30.92618 | 2324 ft | 140 kts | 353° |
| 2026-05-07 18:58 | 30.01320 | 30.92345 | 2126 ft | 141 kts | 352° |
| 2026-05-07 18:58 | 30.02276 | 30.92067 | 1943 ft | 140 kts | 352° |
| 2026-05-07 18:59 | 30.03217 | 30.91793 | 1758 ft | 140 kts | 353° |
| 2026-05-07 18:59 | 30.04156 | 30.91519 | 1569 ft | 139 kts | 354° |
| 2026-05-07 18:59 | 30.05088 | 30.91247 | 1393 ft | 138 kts | 352° |
| 2026-05-07 18:59 | 30.06018 | 30.90976 | 1214 ft | 139 kts | 351° |
| 2026-05-07 19:00 | 30.06958 | 30.90701 | 1041 ft | 140 kts | 351° |
| 2026-05-07 19:00 | 30.07904 | 30.90434 | 829 ft | 141 kts | 352° |
| 2026-05-07 19:00 | 30.08852 | 30.90147 | 639 ft | 139 kts | 351° |
| 2026-05-07 19:00 | 30.09782 | 30.89874 | 514 ft | 130 kts | 353° |
| 2026-05-07 19:01 | 30.10536 | 30.89657 | 518 ft | 89 kts | 346° |
| 2026-05-07 19:01 | 30.10918 | 30.89544 | 520 ft | 17 kts | 343° |
| 2026-05-07 19:01 | 30.10940 | 30.89485 | 520 ft | 5 kts | 235° |
| 2026-05-07 19:01 | 30.10927 | 30.89438 | 520 ft | 8 kts | 257° |
| 2026-05-07 19:02 | 30.10914 | 30.89369 | 521 ft | 10 kts | 257° |
| 2026-05-07 19:02 | 30.10897 | 30.89287 | 521 ft | 11 kts | 257° |
| 2026-05-07 19:02 | 30.10876 | 30.89190 | 521 ft | 13 kts | 253° |
| 2026-05-07 19:02 | 30.10848 | 30.89078 | 520 ft | 16 kts | 254° |
| 2026-05-07 19:03 | 30.10834 | 30.89019 | 520 ft | 0 kts | 255° |